sensor_id;sensor_type;location;lat;lon;timestamp;P1;durP1;ratioP1;P2;durP2;ratioP2
19495;SDS011;9888;48.606;9.630;2023-04-03T00:01:09;11.60;;;5.80;;
19495;SDS011;9888;48.606;9.630;2023-04-03T00:03:36;11.23;;;5.00;;
19495;SDS011;9888;48.606;9.630;2023-04-03T00:06:05;12.90;;;5.73;;
19495;SDS011;9888;48.606;9.630;2023-04-03T00:08:32;12.30;;;5.47;;
19495;SDS011;9888;48.606;9.630;2023-04-03T00:11:01;12.80;;;5.63;;
19495;SDS011;9888;48.606;9.630;2023-04-03T00:13:29;11.13;;;5.27;;
19495;SDS011;9888;48.606;9.630;2023-04-03T00:15:57;11.57;;;5.57;;
19495;SDS011;9888;48.606;9.630;2023-04-03T00:18:24;13.20;;;5.60;;
19495;SDS011;9888;48.606;9.630;2023-04-03T00:20:51;12.93;;;5.50;;
19495;SDS011;9888;48.606;9.630;2023-04-03T00:23:18;10.77;;;5.17;;
19495;SDS011;9888;48.606;9.630;2023-04-03T00:25:48;9.77;;;4.70;;
19495;SDS011;9888;48.606;9.630;2023-04-03T00:28:15;12.27;;;5.03;;
19495;SDS011;9888;48.606;9.630;2023-04-03T00:30:42;10.70;;;5.37;;
19495;SDS011;9888;48.606;9.630;2023-04-03T00:33:11;12.07;;;5.10;;
19495;SDS011;9888;48.606;9.630;2023-04-03T00:35:39;12.50;;;5.40;;
19495;SDS011;9888;48.606;9.630;2023-04-03T00:38:07;12.53;;;5.27;;
19495;SDS011;9888;48.606;9.630;2023-04-03T00:40:36;10.90;;;5.57;;
19495;SDS011;9888;48.606;9.630;2023-04-03T00:43:21;12.13;;;4.87;;
19495;SDS011;9888;48.606;9.630;2023-04-03T00:45:50;13.17;;;5.67;;
19495;SDS011;9888;48.606;9.630;2023-04-03T00:48:29;11.30;;;4.87;;
19495;SDS011;9888;48.606;9.630;2023-04-03T00:50:59;12.13;;;5.00;;
19495;SDS011;9888;48.606;9.630;2023-04-03T00:54:08;12.17;;;5.20;;
19495;SDS011;9888;48.606;9.630;2023-04-03T00:56:21;11.93;;;4.77;;
19495;SDS011;9888;48.606;9.630;2023-04-03T00:58:58;14.93;;;5.30;;
19495;SDS011;9888;48.606;9.630;2023-04-03T01:01:36;12.67;;;5.40;;
19495;SDS011;9888;48.606;9.630;2023-04-03T01:04:03;11.00;;;4.90;;
19495;SDS011;9888;48.606;9.630;2023-04-03T01:06:33;11.53;;;5.30;;
19495;SDS011;9888;48.606;9.630;2023-04-03T01:09:03;12.77;;;5.40;;
19495;SDS011;9888;48.606;9.630;2023-04-03T01:11:32;10.73;;;5.27;;
19495;SDS011;9888;48.606;9.630;2023-04-03T01:14:00;8.93;;;4.60;;
19495;SDS011;9888;48.606;9.630;2023-04-03T01:16:27;12.43;;;5.67;;
19495;SDS011;9888;48.606;9.630;2023-04-03T01:18:56;13.60;;;5.47;;
19495;SDS011;9888;48.606;9.630;2023-04-03T01:23:57;11.80;;;5.33;;
19495;SDS011;9888;48.606;9.630;2023-04-03T01:26:42;13.07;;;5.00;;
19495;SDS011;9888;48.606;9.630;2023-04-03T01:29:10;10.10;;;5.03;;
19495;SDS011;9888;48.606;9.630;2023-04-03T01:31:47;9.83;;;4.83;;
19495;SDS011;9888;48.606;9.630;2023-04-03T01:34:19;10.30;;;4.80;;
19495;SDS011;9888;48.606;9.630;2023-04-03T01:36:46;16.33;;;5.43;;
19495;SDS011;9888;48.606;9.630;2023-04-03T01:39:14;10.13;;;4.43;;
19495;SDS011;9888;48.606;9.630;2023-04-03T01:41:41;12.17;;;5.10;;
19495;SDS011;9888;48.606;9.630;2023-04-03T01:44:08;12.40;;;5.10;;
19495;SDS011;9888;48.606;9.630;2023-04-03T01:46:35;11.97;;;5.40;;
19495;SDS011;9888;48.606;9.630;2023-04-03T01:49:03;12.47;;;5.30;;
19495;SDS011;9888;48.606;9.630;2023-04-03T01:51:30;12.43;;;5.50;;
19495;SDS011;9888;48.606;9.630;2023-04-03T01:53:59;10.90;;;4.83;;
19495;SDS011;9888;48.606;9.630;2023-04-03T01:56:26;9.87;;;4.70;;
19495;SDS011;9888;48.606;9.630;2023-04-03T01:58:53;10.80;;;4.80;;
19495;SDS011;9888;48.606;9.630;2023-04-03T02:01:20;15.90;;;5.60;;
19495;SDS011;9888;48.606;9.630;2023-04-03T02:03:47;13.87;;;5.03;;
19495;SDS011;9888;48.606;9.630;2023-04-03T02:06:16;16.30;;;5.80;;
19495;SDS011;9888;48.606;9.630;2023-04-03T02:08:44;10.40;;;5.13;;
19495;SDS011;9888;48.606;9.630;2023-04-03T02:11:15;11.47;;;4.73;;
19495;SDS011;9888;48.606;9.630;2023-04-03T02:13:42;11.10;;;5.10;;
19495;SDS011;9888;48.606;9.630;2023-04-03T02:16:09;10.07;;;5.20;;
19495;SDS011;9888;48.606;9.630;2023-04-03T02:18:37;9.77;;;4.80;;
19495;SDS011;9888;48.606;9.630;2023-04-03T02:21:04;11.60;;;5.13;;
19495;SDS011;9888;48.606;9.630;2023-04-03T02:23:31;12.00;;;5.07;;
19495;SDS011;9888;48.606;9.630;2023-04-03T02:26:03;12.20;;;4.40;;
19495;SDS011;9888;48.606;9.630;2023-04-03T02:28:31;12.57;;;5.00;;
19495;SDS011;9888;48.606;9.630;2023-04-03T02:31:02;11.10;;;5.03;;
19495;SDS011;9888;48.606;9.630;2023-04-03T02:33:31;11.87;;;4.60;;
19495;SDS011;9888;48.606;9.630;2023-04-03T02:36:02;10.80;;;4.47;;
19495;SDS011;9888;48.606;9.630;2023-04-03T02:38:31;10.90;;;4.50;;
19495;SDS011;9888;48.606;9.630;2023-04-03T02:41:06;12.27;;;5.20;;
19495;SDS011;9888;48.606;9.630;2023-04-03T02:43:34;11.50;;;4.83;;
19495;SDS011;9888;48.606;9.630;2023-04-03T02:46:01;10.47;;;4.20;;
19495;SDS011;9888;48.606;9.630;2023-04-03T02:48:28;13.77;;;4.67;;
19495;SDS011;9888;48.606;9.630;2023-04-03T02:50:55;11.50;;;4.30;;
19495;SDS011;9888;48.606;9.630;2023-04-03T02:53:23;9.80;;;4.40;;
19495;SDS011;9888;48.606;9.630;2023-04-03T02:55:50;10.60;;;4.70;;
19495;SDS011;9888;48.606;9.630;2023-04-03T02:58:16;10.00;;;4.60;;
19495;SDS011;9888;48.606;9.630;2023-04-03T03:00:44;10.80;;;4.13;;
19495;SDS011;9888;48.606;9.630;2023-04-03T03:03:11;9.77;;;4.00;;
19495;SDS011;9888;48.606;9.630;2023-04-03T03:05:39;8.90;;;4.07;;
19495;SDS011;9888;48.606;9.630;2023-04-03T03:08:06;10.93;;;4.40;;
19495;SDS011;9888;48.606;9.630;2023-04-03T03:10:33;10.87;;;4.17;;
19495;SDS011;9888;48.606;9.630;2023-04-03T03:13:00;10.37;;;4.20;;
19495;SDS011;9888;48.606;9.630;2023-04-03T03:15:27;12.43;;;4.80;;
19495;SDS011;9888;48.606;9.630;2023-04-03T03:17:54;11.70;;;4.10;;
19495;SDS011;9888;48.606;9.630;2023-04-03T03:20:20;10.10;;;4.70;;
19495;SDS011;9888;48.606;9.630;2023-04-03T03:22:47;10.53;;;4.60;;
19495;SDS011;9888;48.606;9.630;2023-04-03T03:25:14;11.20;;;4.63;;
19495;SDS011;9888;48.606;9.630;2023-04-03T03:27:41;10.50;;;4.50;;
19495;SDS011;9888;48.606;9.630;2023-04-03T03:30:10;9.60;;;4.30;;
19495;SDS011;9888;48.606;9.630;2023-04-03T03:32:37;9.40;;;3.63;;
19495;SDS011;9888;48.606;9.630;2023-04-03T03:35:04;10.30;;;4.27;;
19495;SDS011;9888;48.606;9.630;2023-04-03T03:37:32;18.03;;;4.47;;
19495;SDS011;9888;48.606;9.630;2023-04-03T03:39:59;9.60;;;4.10;;
19495;SDS011;9888;48.606;9.630;2023-04-03T03:42:26;13.53;;;4.07;;
19495;SDS011;9888;48.606;9.630;2023-04-03T03:44:54;11.47;;;4.20;;
19495;SDS011;9888;48.606;9.630;2023-04-03T03:47:21;9.40;;;4.27;;
19495;SDS011;9888;48.606;9.630;2023-04-03T03:49:48;10.90;;;4.27;;
19495;SDS011;9888;48.606;9.630;2023-04-03T03:52:15;10.67;;;4.33;;
19495;SDS011;9888;48.606;9.630;2023-04-03T03:54:42;11.77;;;4.40;;
19495;SDS011;9888;48.606;9.630;2023-04-03T03:57:10;10.37;;;4.47;;
19495;SDS011;9888;48.606;9.630;2023-04-03T03:59:36;12.20;;;4.60;;
19495;SDS011;9888;48.606;9.630;2023-04-03T04:02:07;10.83;;;3.90;;
19495;SDS011;9888;48.606;9.630;2023-04-03T04:04:35;8.93;;;3.70;;
19495;SDS011;9888;48.606;9.630;2023-04-03T04:07:02;12.37;;;4.40;;
19495;SDS011;9888;48.606;9.630;2023-04-03T04:09:29;9.03;;;4.20;;
19495;SDS011;9888;48.606;9.630;2023-04-03T04:11:56;9.30;;;3.77;;
19495;SDS011;9888;48.606;9.630;2023-04-03T04:14:23;9.30;;;3.70;;
19495;SDS011;9888;48.606;9.630;2023-04-03T04:16:50;10.40;;;3.80;;
19495;SDS011;9888;48.606;9.630;2023-04-03T04:19:20;9.30;;;3.40;;
19495;SDS011;9888;48.606;9.630;2023-04-03T04:21:49;9.27;;;3.80;;
19495;SDS011;9888;48.606;9.630;2023-04-03T04:24:16;8.50;;;3.13;;
19495;SDS011;9888;48.606;9.630;2023-04-03T04:26:43;11.13;;;4.10;;
19495;SDS011;9888;48.606;9.630;2023-04-03T04:29:10;8.17;;;3.50;;
19495;SDS011;9888;48.606;9.630;2023-04-03T04:31:37;10.37;;;3.60;;
19495;SDS011;9888;48.606;9.630;2023-04-03T04:34:04;9.17;;;3.17;;
19495;SDS011;9888;48.606;9.630;2023-04-03T04:36:32;9.30;;;3.13;;
19495;SDS011;9888;48.606;9.630;2023-04-03T04:38:59;9.00;;;3.00;;
19495;SDS011;9888;48.606;9.630;2023-04-03T04:41:26;8.20;;;3.30;;
19495;SDS011;9888;48.606;9.630;2023-04-03T04:43:54;9.37;;;3.20;;
19495;SDS011;9888;48.606;9.630;2023-04-03T04:46:22;9.50;;;2.93;;
19495;SDS011;9888;48.606;9.630;2023-04-03T04:48:50;10.70;;;3.43;;
19495;SDS011;9888;48.606;9.630;2023-04-03T04:51:17;9.27;;;3.43;;
19495;SDS011;9888;48.606;9.630;2023-04-03T04:53:45;7.43;;;2.90;;
19495;SDS011;9888;48.606;9.630;2023-04-03T04:56:12;8.60;;;3.57;;
19495;SDS011;9888;48.606;9.630;2023-04-03T04:58:39;10.17;;;3.13;;
19495;SDS011;9888;48.606;9.630;2023-04-03T05:01:07;10.10;;;3.80;;
19495;SDS011;9888;48.606;9.630;2023-04-03T05:03:36;7.70;;;2.80;;
19495;SDS011;9888;48.606;9.630;2023-04-03T05:06:05;8.17;;;3.07;;
19495;SDS011;9888;48.606;9.630;2023-04-03T05:08:32;8.27;;;2.70;;
19495;SDS011;9888;48.606;9.630;2023-04-03T05:11:00;7.30;;;2.70;;
19495;SDS011;9888;48.606;9.630;2023-04-03T05:13:26;9.87;;;3.30;;
19495;SDS011;9888;48.606;9.630;2023-04-03T05:15:55;9.13;;;3.10;;
19495;SDS011;9888;48.606;9.630;2023-04-03T05:18:21;7.70;;;2.90;;
19495;SDS011;9888;48.606;9.630;2023-04-03T05:20:49;7.80;;;3.10;;
19495;SDS011;9888;48.606;9.630;2023-04-03T05:23:16;8.20;;;3.20;;
19495;SDS011;9888;48.606;9.630;2023-04-03T05:25:43;7.83;;;2.80;;
19495;SDS011;9888;48.606;9.630;2023-04-03T05:28:12;11.83;;;3.00;;
19495;SDS011;9888;48.606;9.630;2023-04-03T05:30:39;14.27;;;2.83;;
19495;SDS011;9888;48.606;9.630;2023-04-03T05:33:06;8.20;;;2.97;;
19495;SDS011;9888;48.606;9.630;2023-04-03T05:35:35;8.80;;;2.70;;
19495;SDS011;9888;48.606;9.630;2023-04-03T05:38:05;7.80;;;2.97;;
19495;SDS011;9888;48.606;9.630;2023-04-03T05:40:33;8.30;;;2.83;;
19495;SDS011;9888;48.606;9.630;2023-04-03T05:43:00;8.77;;;3.40;;
19495;SDS011;9888;48.606;9.630;2023-04-03T05:45:27;7.60;;;3.00;;
19495;SDS011;9888;48.606;9.630;2023-04-03T05:47:55;8.27;;;3.33;;
19495;SDS011;9888;48.606;9.630;2023-04-03T05:50:22;8.33;;;2.60;;
19495;SDS011;9888;48.606;9.630;2023-04-03T05:52:50;8.13;;;2.87;;
19495;SDS011;9888;48.606;9.630;2023-04-03T05:55:19;11.07;;;2.80;;
19495;SDS011;9888;48.606;9.630;2023-04-03T05:57:47;7.77;;;2.83;;
19495;SDS011;9888;48.606;9.630;2023-04-03T06:00:15;8.13;;;2.60;;
19495;SDS011;9888;48.606;9.630;2023-04-03T06:02:43;8.50;;;3.13;;
19495;SDS011;9888;48.606;9.630;2023-04-03T06:05:10;12.83;;;3.23;;
19495;SDS011;9888;48.606;9.630;2023-04-03T06:07:39;9.63;;;3.30;;
19495;SDS011;9888;48.606;9.630;2023-04-03T06:10:07;9.50;;;3.50;;
19495;SDS011;9888;48.606;9.630;2023-04-03T06:12:34;7.23;;;2.80;;
19495;SDS011;9888;48.606;9.630;2023-04-03T06:15:01;8.77;;;3.07;;
19495;SDS011;9888;48.606;9.630;2023-04-03T06:17:30;9.27;;;3.17;;
19495;SDS011;9888;48.606;9.630;2023-04-03T06:19:59;10.60;;;3.30;;
19495;SDS011;9888;48.606;9.630;2023-04-03T06:22:25;9.67;;;3.70;;
19495;SDS011;9888;48.606;9.630;2023-04-03T06:24:55;17.63;;;4.03;;
19495;SDS011;9888;48.606;9.630;2023-04-03T06:27:22;10.33;;;4.00;;
19495;SDS011;9888;48.606;9.630;2023-04-03T06:29:49;8.40;;;3.37;;
19495;SDS011;9888;48.606;9.630;2023-04-03T06:32:16;10.50;;;3.10;;
19495;SDS011;9888;48.606;9.630;2023-04-03T06:34:44;12.03;;;3.77;;
19495;SDS011;9888;48.606;9.630;2023-04-03T06:37:15;8.77;;;3.70;;
19495;SDS011;9888;48.606;9.630;2023-04-03T06:39:44;8.83;;;3.37;;
19495;SDS011;9888;48.606;9.630;2023-04-03T06:42:12;8.60;;;3.47;;
19495;SDS011;9888;48.606;9.630;2023-04-03T06:44:39;8.90;;;3.40;;
19495;SDS011;9888;48.606;9.630;2023-04-03T06:47:09;8.80;;;3.57;;
19495;SDS011;9888;48.606;9.630;2023-04-03T06:49:38;23.63;;;5.13;;
19495;SDS011;9888;48.606;9.630;2023-04-03T06:52:07;75.43;;;8.87;;
19495;SDS011;9888;48.606;9.630;2023-04-03T06:54:38;10.47;;;3.73;;
19495;SDS011;9888;48.606;9.630;2023-04-03T06:57:06;11.03;;;4.27;;
19495;SDS011;9888;48.606;9.630;2023-04-03T06:59:34;17.40;;;8.27;;
19495;SDS011;9888;48.606;9.630;2023-04-03T07:02:02;9.57;;;3.67;;
19495;SDS011;9888;48.606;9.630;2023-04-03T07:04:29;8.50;;;3.57;;
19495;SDS011;9888;48.606;9.630;2023-04-03T07:06:56;11.50;;;3.73;;
19495;SDS011;9888;48.606;9.630;2023-04-03T07:09:24;18.27;;;4.93;;
19495;SDS011;9888;48.606;9.630;2023-04-03T07:11:57;18.13;;;4.10;;
19495;SDS011;9888;48.606;9.630;2023-04-03T07:14:24;13.23;;;4.13;;
19495;SDS011;9888;48.606;9.630;2023-04-03T07:16:51;8.30;;;3.90;;
19495;SDS011;9888;48.606;9.630;2023-04-03T07:19:19;9.23;;;3.60;;
19495;SDS011;9888;48.606;9.630;2023-04-03T07:21:46;10.27;;;3.30;;
19495;SDS011;9888;48.606;9.630;2023-04-03T07:24:14;8.07;;;3.10;;
19495;SDS011;9888;48.606;9.630;2023-04-03T07:26:41;13.83;;;4.00;;
19495;SDS011;9888;48.606;9.630;2023-04-03T07:29:08;8.33;;;3.83;;
19495;SDS011;9888;48.606;9.630;2023-04-03T07:31:36;9.80;;;3.53;;
19495;SDS011;9888;48.606;9.630;2023-04-03T07:34:07;8.53;;;3.47;;
19495;SDS011;9888;48.606;9.630;2023-04-03T07:36:35;9.57;;;4.10;;
19495;SDS011;9888;48.606;9.630;2023-04-03T07:39:03;10.10;;;3.43;;
19495;SDS011;9888;48.606;9.630;2023-04-03T07:41:33;11.60;;;4.00;;
19495;SDS011;9888;48.606;9.630;2023-04-03T07:44:00;7.83;;;3.17;;
19495;SDS011;9888;48.606;9.630;2023-04-03T07:46:28;7.57;;;3.30;;
19495;SDS011;9888;48.606;9.630;2023-04-03T07:48:56;7.53;;;3.40;;
19495;SDS011;9888;48.606;9.630;2023-04-03T07:51:23;7.37;;;3.30;;
19495;SDS011;9888;48.606;9.630;2023-04-03T07:53:51;9.17;;;3.10;;
19495;SDS011;9888;48.606;9.630;2023-04-03T07:56:18;8.30;;;3.00;;
19495;SDS011;9888;48.606;9.630;2023-04-03T07:58:47;8.00;;;3.17;;
19495;SDS011;9888;48.606;9.630;2023-04-03T08:01:16;7.50;;;3.10;;
19495;SDS011;9888;48.606;9.630;2023-04-03T08:03:43;8.80;;;3.20;;
19495;SDS011;9888;48.606;9.630;2023-04-03T08:06:11;10.30;;;3.20;;
19495;SDS011;9888;48.606;9.630;2023-04-03T08:08:40;8.00;;;3.60;;
19495;SDS011;9888;48.606;9.630;2023-04-03T08:11:09;8.73;;;3.13;;
19495;SDS011;9888;48.606;9.630;2023-04-03T08:13:37;8.50;;;3.63;;
19495;SDS011;9888;48.606;9.630;2023-04-03T08:16:07;7.70;;;2.93;;
19495;SDS011;9888;48.606;9.630;2023-04-03T08:18:37;8.60;;;3.27;;
19495;SDS011;9888;48.606;9.630;2023-04-03T08:21:05;8.23;;;3.40;;
19495;SDS011;9888;48.606;9.630;2023-04-03T08:23:33;8.20;;;3.27;;
19495;SDS011;9888;48.606;9.630;2023-04-03T08:26:11;7.90;;;3.50;;
19495;SDS011;9888;48.606;9.630;2023-04-03T08:28:40;9.20;;;3.40;;
19495;SDS011;9888;48.606;9.630;2023-04-03T08:31:09;8.07;;;3.10;;
19495;SDS011;9888;48.606;9.630;2023-04-03T08:33:40;13.40;;;4.07;;
19495;SDS011;9888;48.606;9.630;2023-04-03T08:36:15;8.33;;;3.67;;
19495;SDS011;9888;48.606;9.630;2023-04-03T08:38:51;8.20;;;3.10;;
19495;SDS011;9888;48.606;9.630;2023-04-03T08:41:33;9.57;;;3.90;;
19495;SDS011;9888;48.606;9.630;2023-04-03T08:47:18;10.00;;;4.00;;
19495;SDS011;9888;48.606;9.630;2023-04-03T08:50:15;8.37;;;3.77;;
19495;SDS011;9888;48.606;9.630;2023-04-03T08:52:47;16.33;;;4.63;;
19495;SDS011;9888;48.606;9.630;2023-04-03T08:55:31;9.10;;;3.90;;
19495;SDS011;9888;48.606;9.630;2023-04-03T08:58:21;13.00;;;4.37;;
19495;SDS011;9888;48.606;9.630;2023-04-03T09:01:03;8.80;;;4.00;;
19495;SDS011;9888;48.606;9.630;2023-04-03T09:03:49;10.57;;;4.07;;
19495;SDS011;9888;48.606;9.630;2023-04-03T09:06:19;8.10;;;3.53;;
19495;SDS011;9888;48.606;9.630;2023-04-03T09:09:27;9.03;;;3.80;;
19495;SDS011;9888;48.606;9.630;2023-04-03T09:20:23;11.63;;;4.00;;
19495;SDS011;9888;48.606;9.630;2023-04-03T09:22:57;10.90;;;4.73;;
19495;SDS011;9888;48.606;9.630;2023-04-03T09:25:29;8.10;;;3.60;;
19495;SDS011;9888;48.606;9.630;2023-04-03T09:28:04;8.43;;;4.10;;
19495;SDS011;9888;48.606;9.630;2023-04-03T09:30:35;9.20;;;4.00;;
19495;SDS011;9888;48.606;9.630;2023-04-03T09:33:03;9.03;;;4.40;;
19495;SDS011;9888;48.606;9.630;2023-04-03T09:35:38;8.40;;;3.80;;
19495;SDS011;9888;48.606;9.630;2023-04-03T09:40:39;8.37;;;3.53;;
19495;SDS011;9888;48.606;9.630;2023-04-03T09:43:25;10.77;;;3.67;;
19495;SDS011;9888;48.606;9.630;2023-04-03T09:45:55;12.10;;;4.10;;
19495;SDS011;9888;48.606;9.630;2023-04-03T09:49:04;10.70;;;3.53;;
19495;SDS011;9888;48.606;9.630;2023-04-03T09:51:37;8.90;;;3.87;;
19495;SDS011;9888;48.606;9.630;2023-04-03T09:57:09;8.37;;;3.40;;
19495;SDS011;9888;48.606;9.630;2023-04-03T09:59:41;11.00;;;3.97;;
19495;SDS011;9888;48.606;9.630;2023-04-03T10:02:37;11.87;;;4.00;;
19495;SDS011;9888;48.606;9.630;2023-04-03T10:05:26;10.70;;;3.97;;
19495;SDS011;9888;48.606;9.630;2023-04-03T10:10:43;8.97;;;4.03;;
19495;SDS011;9888;48.606;9.630;2023-04-03T10:13:26;8.43;;;3.70;;
19495;SDS011;9888;48.606;9.630;2023-04-03T10:15:55;7.97;;;3.33;;
19495;SDS011;9888;48.606;9.630;2023-04-03T10:18:46;8.50;;;2.80;;
19495;SDS011;9888;48.606;9.630;2023-04-03T10:21:39;6.80;;;3.07;;
19495;SDS011;9888;48.606;9.630;2023-04-03T10:24:28;7.53;;;3.30;;
19495;SDS011;9888;48.606;9.630;2023-04-03T10:29:48;7.80;;;2.77;;
19495;SDS011;9888;48.606;9.630;2023-04-03T10:32:23;8.90;;;3.50;;
19495;SDS011;9888;48.606;9.630;2023-04-03T10:35:17;7.60;;;3.00;;
19495;SDS011;9888;48.606;9.630;2023-04-03T10:37:51;9.20;;;3.17;;
19495;SDS011;9888;48.606;9.630;2023-04-03T10:40:45;7.07;;;2.80;;
19495;SDS011;9888;48.606;9.630;2023-04-03T10:43:19;8.10;;;2.77;;
19495;SDS011;9888;48.606;9.630;2023-04-03T10:49:03;7.50;;;2.77;;
19495;SDS011;9888;48.606;9.630;2023-04-03T10:52:02;8.87;;;2.80;;
19495;SDS011;9888;48.606;9.630;2023-04-03T10:54:43;9.40;;;3.70;;
19495;SDS011;9888;48.606;9.630;2023-04-03T10:57:36;8.70;;;3.40;;
19495;SDS011;9888;48.606;9.630;2023-04-03T11:00:07;7.50;;;2.73;;
19495;SDS011;9888;48.606;9.630;2023-04-03T11:02:58;7.10;;;2.57;;
19495;SDS011;9888;48.606;9.630;2023-04-03T11:05:37;9.00;;;3.10;;
19495;SDS011;9888;48.606;9.630;2023-04-03T11:11:14;7.20;;;2.53;;
19495;SDS011;9888;48.606;9.630;2023-04-03T11:13:52;7.70;;;2.80;;
19495;SDS011;9888;48.606;9.630;2023-04-03T11:16:38;7.73;;;3.23;;
19495;SDS011;9888;48.606;9.630;2023-04-03T11:19:18;8.57;;;3.37;;
19495;SDS011;9888;48.606;9.630;2023-04-03T11:25:15;9.00;;;3.50;;
19495;SDS011;9888;48.606;9.630;2023-04-03T11:27:57;12.90;;;3.77;;
19495;SDS011;9888;48.606;9.630;2023-04-03T11:33:30;9.57;;;3.70;;
19495;SDS011;9888;48.606;9.630;2023-04-03T11:36:09;8.30;;;3.30;;
19495;SDS011;9888;48.606;9.630;2023-04-03T11:38:46;9.50;;;4.00;;
19495;SDS011;9888;48.606;9.630;2023-04-03T11:41:16;8.57;;;3.50;;
19495;SDS011;9888;48.606;9.630;2023-04-03T11:47:06;8.03;;;3.20;;
19495;SDS011;9888;48.606;9.630;2023-04-03T11:52:57;9.57;;;3.50;;
19495;SDS011;9888;48.606;9.630;2023-04-03T11:55:44;8.90;;;3.23;;
19495;SDS011;9888;48.606;9.630;2023-04-03T11:58:12;7.00;;;2.80;;
19495;SDS011;9888;48.606;9.630;2023-04-03T12:05:55;8.00;;;3.00;;
19495;SDS011;9888;48.606;9.630;2023-04-03T12:13:55;8.50;;;2.60;;
19495;SDS011;9888;48.606;9.630;2023-04-03T12:16:40;9.63;;;3.00;;
19495;SDS011;9888;48.606;9.630;2023-04-03T12:22:28;9.33;;;3.40;;
19495;SDS011;9888;48.606;9.630;2023-04-03T12:24:56;9.20;;;3.50;;
19495;SDS011;9888;48.606;9.630;2023-04-03T12:27:46;9.50;;;3.40;;
19495;SDS011;9888;48.606;9.630;2023-04-03T12:30:14;7.00;;;2.80;;
19495;SDS011;9888;48.606;9.630;2023-04-03T12:32:58;8.23;;;3.13;;
19495;SDS011;9888;48.606;9.630;2023-04-03T12:35:49;11.70;;;3.47;;
19495;SDS011;9888;48.606;9.630;2023-04-03T12:42:08;9.43;;;3.10;;
19495;SDS011;9888;48.606;9.630;2023-04-03T12:45:31;8.77;;;3.30;;
19495;SDS011;9888;48.606;9.630;2023-04-03T12:47:48;9.27;;;3.03;;
19495;SDS011;9888;48.606;9.630;2023-04-03T12:50:18;8.70;;;3.00;;
19495;SDS011;9888;48.606;9.630;2023-04-03T12:53:31;10.13;;;3.33;;
19495;SDS011;9888;48.606;9.630;2023-04-03T12:56:42;7.73;;;3.07;;
19495;SDS011;9888;48.606;9.630;2023-04-03T12:59:18;8.30;;;3.40;;
19495;SDS011;9888;48.606;9.630;2023-04-03T13:01:57;7.43;;;3.03;;
19495;SDS011;9888;48.606;9.630;2023-04-03T13:04:37;7.67;;;3.13;;
19495;SDS011;9888;48.606;9.630;2023-04-03T13:07:04;8.20;;;3.00;;
19495;SDS011;9888;48.606;9.630;2023-04-03T13:09:44;8.73;;;3.23;;
19495;SDS011;9888;48.606;9.630;2023-04-03T13:12:25;10.50;;;3.70;;
19495;SDS011;9888;48.606;9.630;2023-04-03T13:14:57;8.73;;;3.13;;
19495;SDS011;9888;48.606;9.630;2023-04-03T13:17:27;8.93;;;3.73;;
19495;SDS011;9888;48.606;9.630;2023-04-03T13:19:55;7.50;;;3.33;;
19495;SDS011;9888;48.606;9.630;2023-04-03T13:23:07;8.53;;;3.50;;
19495;SDS011;9888;48.606;9.630;2023-04-03T13:25:36;8.90;;;3.30;;
19495;SDS011;9888;48.606;9.630;2023-04-03T13:28:18;8.10;;;3.37;;
19495;SDS011;9888;48.606;9.630;2023-04-03T13:30:54;9.73;;;3.63;;
19495;SDS011;9888;48.606;9.630;2023-04-03T13:33:29;8.37;;;3.50;;
19495;SDS011;9888;48.606;9.630;2023-04-03T13:36:11;12.63;;;3.57;;
19495;SDS011;9888;48.606;9.630;2023-04-03T13:41:40;9.73;;;3.60;;
19495;SDS011;9888;48.606;9.630;2023-04-03T13:46:43;7.70;;;3.37;;
19495;SDS011;9888;48.606;9.630;2023-04-03T13:49:18;8.10;;;3.73;;
19495;SDS011;9888;48.606;9.630;2023-04-03T13:52:22;8.70;;;3.50;;
19495;SDS011;9888;48.606;9.630;2023-04-03T13:54:56;8.53;;;3.50;;
19495;SDS011;9888;48.606;9.630;2023-04-03T13:57:48;12.00;;;3.87;;
19495;SDS011;9888;48.606;9.630;2023-04-03T14:00:33;7.97;;;2.93;;
19495;SDS011;9888;48.606;9.630;2023-04-03T14:03:38;7.50;;;2.90;;
19495;SDS011;9888;48.606;9.630;2023-04-03T14:06:34;7.63;;;2.90;;
19495;SDS011;9888;48.606;9.630;2023-04-03T14:09:02;8.23;;;3.37;;
19495;SDS011;9888;48.606;9.630;2023-04-03T14:11:30;8.70;;;3.30;;
19495;SDS011;9888;48.606;9.630;2023-04-03T14:14:00;8.73;;;3.43;;
19495;SDS011;9888;48.606;9.630;2023-04-03T14:16:37;10.90;;;4.20;;
19495;SDS011;9888;48.606;9.630;2023-04-03T14:19:22;10.20;;;3.37;;
19495;SDS011;9888;48.606;9.630;2023-04-03T14:21:52;8.20;;;3.20;;
19495;SDS011;9888;48.606;9.630;2023-04-03T14:24:21;29.73;;;8.23;;
19495;SDS011;9888;48.606;9.630;2023-04-03T14:26:51;10.87;;;3.30;;
19495;SDS011;9888;48.606;9.630;2023-04-03T14:29:19;9.70;;;3.70;;
19495;SDS011;9888;48.606;9.630;2023-04-03T14:31:48;8.83;;;3.40;;
19495;SDS011;9888;48.606;9.630;2023-04-03T14:34:16;11.20;;;3.40;;
19495;SDS011;9888;48.606;9.630;2023-04-03T14:36:44;10.67;;;4.37;;
19495;SDS011;9888;48.606;9.630;2023-04-03T14:39:16;13.53;;;3.73;;
19495;SDS011;9888;48.606;9.630;2023-04-03T14:41:45;8.17;;;3.67;;
19495;SDS011;9888;48.606;9.630;2023-04-03T14:44:14;9.13;;;3.60;;
19495;SDS011;9888;48.606;9.630;2023-04-03T14:46:42;8.60;;;3.63;;
19495;SDS011;9888;48.606;9.630;2023-04-03T14:49:18;9.33;;;3.93;;
19495;SDS011;9888;48.606;9.630;2023-04-03T14:51:48;9.13;;;3.87;;
19495;SDS011;9888;48.606;9.630;2023-04-03T14:54:19;8.20;;;3.30;;
19495;SDS011;9888;48.606;9.630;2023-04-03T14:56:53;8.90;;;3.53;;
19495;SDS011;9888;48.606;9.630;2023-04-03T14:59:26;8.70;;;3.90;;
19495;SDS011;9888;48.606;9.630;2023-04-03T15:01:54;8.60;;;3.50;;
19495;SDS011;9888;48.606;9.630;2023-04-03T15:04:21;7.87;;;3.13;;
19495;SDS011;9888;48.606;9.630;2023-04-03T15:06:52;8.43;;;3.00;;
19495;SDS011;9888;48.606;9.630;2023-04-03T15:09:26;13.03;;;4.00;;
19495;SDS011;9888;48.606;9.630;2023-04-03T15:11:54;9.30;;;3.10;;
19495;SDS011;9888;48.606;9.630;2023-04-03T15:14:24;12.27;;;4.33;;
19495;SDS011;9888;48.606;9.630;2023-04-03T15:16:51;7.73;;;3.23;;
19495;SDS011;9888;48.606;9.630;2023-04-03T15:19:18;9.00;;;4.07;;
19495;SDS011;9888;48.606;9.630;2023-04-03T15:21:46;8.90;;;3.33;;
19495;SDS011;9888;48.606;9.630;2023-04-03T15:24:14;9.40;;;3.17;;
19495;SDS011;9888;48.606;9.630;2023-04-03T15:26:41;8.10;;;3.33;;
19495;SDS011;9888;48.606;9.630;2023-04-03T15:29:15;7.50;;;3.13;;
19495;SDS011;9888;48.606;9.630;2023-04-03T15:31:44;7.97;;;3.30;;
19495;SDS011;9888;48.606;9.630;2023-04-03T15:34:12;7.60;;;2.97;;
19495;SDS011;9888;48.606;9.630;2023-04-03T15:36:40;8.90;;;3.43;;
19495;SDS011;9888;48.606;9.630;2023-04-03T15:39:08;10.93;;;4.20;;
19495;SDS011;9888;48.606;9.630;2023-04-03T15:41:36;7.33;;;2.73;;
19495;SDS011;9888;48.606;9.630;2023-04-03T15:44:04;7.27;;;3.00;;
19495;SDS011;9888;48.606;9.630;2023-04-03T15:46:32;13.07;;;3.47;;
19495;SDS011;9888;48.606;9.630;2023-04-03T15:48:59;9.53;;;3.00;;
19495;SDS011;9888;48.606;9.630;2023-04-03T15:51:27;59.80;;;7.03;;
19495;SDS011;9888;48.606;9.630;2023-04-03T15:53:55;28.50;;;4.90;;
19495;SDS011;9888;48.606;9.630;2023-04-03T18:39:11;12.20;;;3.10;;
19495;SDS011;9888;48.606;9.630;2023-04-03T18:41:38;8.23;;;3.17;;
19495;SDS011;9888;48.606;9.630;2023-04-03T18:47:12;8.20;;;3.17;;
19495;SDS011;9888;48.606;9.630;2023-04-03T18:49:39;8.83;;;3.40;;
19495;SDS011;9888;48.606;9.630;2023-04-03T18:52:08;10.87;;;3.37;;
19495;SDS011;9888;48.606;9.630;2023-04-03T18:54:37;8.90;;;3.00;;
19495;SDS011;9888;48.606;9.630;2023-04-03T18:57:05;8.80;;;2.67;;
19495;SDS011;9888;48.606;9.630;2023-04-03T18:59:32;9.23;;;3.63;;
19495;SDS011;9888;48.606;9.630;2023-04-03T19:01:59;9.00;;;3.40;;
19495;SDS011;9888;48.606;9.630;2023-04-03T19:04:26;9.50;;;3.30;;
19495;SDS011;9888;48.606;9.630;2023-04-03T19:06:55;12.00;;;3.23;;
19495;SDS011;9888;48.606;9.630;2023-04-03T19:09:23;9.53;;;3.00;;
19495;SDS011;9888;48.606;9.630;2023-04-03T19:11:52;8.87;;;3.40;;
19495;SDS011;9888;48.606;9.630;2023-04-03T19:14:20;10.23;;;3.10;;
19495;SDS011;9888;48.606;9.630;2023-04-03T19:16:48;8.60;;;3.40;;